Time;durP1;ratioP1;P1;durP2;ratioP2;P2;SDS_P1;SDS_P2;PMS_P1;PMS_P2;Temp;Humidity;BMP_temperature;BMP_pressure;BME280_temperature;BME280_humidity;BME280_pressure;Samples;Min_cycle;Max_cycle;Signal;HPM_P1;HPM_P2
2022/09/11 00:01:32;;;;;;;23.20;14.13;;;;;;;15.11;100.00;101363.78;4988517;28;20030;-75
2022/09/11 00:03:58;;;;;;;27.50;15.90;;;;;;;15.10;100.00;101367.34;4987831;28;20482;-75
2022/09/11 00:06:25;;;;;;;24.35;15.70;;;;;;;15.07;100.00;101373.75;4989211;28;20534;-75
2022/09/11 00:08:59;;;;;;;25.65;16.13;;;;;;;15.06;100.00;101373.91;4988205;28;20080;-75
2022/09/11 00:11:26;;;;;;;29.92;17.63;;;;;;;14.99;100.00;101379.81;4973677;28;20042;-74
2022/09/11 00:13:53;;;;;;;25.38;16.42;;;;;;;14.96;100.00;101381.97;4988041;28;20042;-75
2022/09/11 00:16:32;;;;;;;26.05;16.23;;;;;;;14.94;100.00;101386.53;4988538;28;20046;-74
2022/09/11 00:19:00;;;;;;;35.42;19.48;;;;;;;14.91;100.00;101381.66;4976853;28;20038;-74
2022/09/11 00:21:26;;;;;;;33.90;18.65;;;;;;;14.88;100.00;101382.81;4988880;28;20100;-75
2022/09/11 00:23:52;;;;;;;30.58;18.45;;;;;;;14.92;100.00;101381.50;4987984;28;20113;-75
2022/09/11 00:26:19;;;;;;;36.35;18.75;;;;;;;14.86;100.00;101376.13;4989325;28;20050;-75
2022/09/11 00:28:45;;;;;;;28.35;17.67;;;;;;;14.82;100.00;101373.03;4987376;28;20092;-75
2022/09/11 00:31:14;;;;;;;26.92;17.05;;;;;;;14.78;100.00;101379.59;4986446;28;20038;-74
2022/09/11 00:33:39;;;;;;;29.20;16.73;;;;;;;14.75;100.00;101388.56;4968818;28;20840;-74
2022/09/11 00:36:09;;;;;;;32.28;16.92;;;;;;;14.75;100.00;101385.16;4987916;28;20034;-74
2022/09/11 00:38:36;;;;;;;27.10;16.45;;;;;;;14.71;100.00;101389.91;4989103;28;20030;-74
2022/09/11 00:41:05;;;;;;;28.30;17.42;;;;;;;14.71;100.00;101389.91;4966484;28;20117;-74
2022/09/11 00:43:58;;;;;;;29.35;17.27;;;;;;;14.67;100.00;101404.25;4983193;28;20041;-75
2022/09/11 00:46:30;;;;;;;28.73;16.65;;;;;;;14.68;100.00;101405.09;4975581;28;20395;-75
2022/09/11 00:48:57;;;;;;;27.95;17.27;;;;;;;14.66;100.00;101401.81;4986119;28;20038;-74
2022/09/11 00:51:27;;;;;;;27.38;17.90;;;;;;;14.65;100.00;101402.78;4989751;28;20475;-74
2022/09/11 00:53:56;;;;;;;35.92;19.38;;;;;;;14.62;100.00;101406.56;4984860;28;20605;-74
2022/09/11 00:56:26;;;;;;;27.50;17.80;;;;;;;14.59;100.00;101397.25;4984118;28;20124;-74
2022/09/11 00:58:53;;;;;;;25.48;15.63;;;;;;;14.56;100.00;101396.75;4982754;28;20041;-74
2022/09/11 01:01:19;;;;;;;27.58;16.65;;;;;;;14.55;100.00;101405.56;4987266;28;20487;-74
2022/09/11 01:03:44;;;;;;;26.58;16.83;;;;;;;14.52;100.00;101411.13;4987271;28;20036;-74
2022/09/11 01:06:10;;;;;;;30.65;19.10;;;;;;;14.46;100.00;101419.63;4986277;28;20913;-74
2022/09/11 01:08:36;;;;;;;27.40;16.17;;;;;;;14.44;100.00;101432.00;4987296;28;20173;-75
2022/09/11 01:11:30;;;;;;;35.67;19.52;;;;;;;14.40;100.00;101429.72;4986977;28;20030;-75
2022/09/11 01:14:39;;;;;;;29.40;18.25;;;;;;;14.39;100.00;101437.72;4986932;28;20037;-75
2022/09/11 01:17:32;;;;;;;31.95;18.42;;;;;;;14.43;100.00;101426.00;4984775;28;20042;-74
2022/09/11 01:20:37;;;;;;;35.35;19.90;;;;;;;14.50;100.00;101428.72;4986127;28;20122;-74
2022/09/11 01:23:27;;;;;;;37.72;19.60;;;;;;;14.46;100.00;101433.47;4974036;28;20057;-75
2022/09/11 01:26:31;;;;;;;39.92;21.05;;;;;;;14.43;100.00;101436.44;4986969;28;20034;-75
2022/09/11 01:29:00;;;;;;;33.97;20.33;;;;;;;14.37;100.00;101442.28;4988036;28;20034;-75
2022/09/11 01:31:32;;;;;;;36.80;21.25;;;;;;;14.36;100.00;101446.69;4986833;28;20134;-74
2022/09/11 01:34:06;;;;;;;40.78;22.85;;;;;;;14.36;100.00;101440.66;4986813;28;20023;-75
2022/09/11 01:36:43;;;;;;;40.72;21.75;;;;;;;14.36;100.00;101443.28;4988359;28;20026;-74
2022/09/11 01:39:12;;;;;;;45.47;24.48;;;;;;;14.36;100.00;101453.72;4985459;28;20023;-74
2022/09/11 01:41:55;;;;;;;48.92;23.20;;;;;;;14.38;100.00;101449.94;4985769;28;20034;-74
2022/09/11 01:44:21;;;;;;;;;;;;;;;14.38;100.00;101449.94;4986360;28;20030;-75
2022/09/11 01:46:51;;;;;;;45.10;22.95;;;;;;;14.40;100.00;101452.41;4968295;28;19961;-74
2022/09/11 01:49:26;;;;;;;46.40;24.45;;;;;;;14.44;100.00;101452.88;4983698;28;21398;-74
2022/09/11 01:51:56;;;;;;;47.28;25.98;;;;;;;14.40;100.00;101448.00;4984392;28;20189;-74
2022/09/11 01:54:25;;;;;;;47.72;25.73;;;;;;;14.50;100.00;101454.81;4966719;28;20031;-74
2022/09/11 01:57:05;;;;;;;44.38;26.52;;;;;;;14.48;100.00;101451.56;4974371;28;20046;-74
2022/09/11 01:59:46;;;;;;;50.15;26.50;;;;;;;14.53;100.00;101454.50;4985850;28;20033;-74
2022/09/11 02:02:18;;;;;;;46.95;26.30;;;;;;;14.50;100.00;101460.03;4985556;28;20488;-74
2022/09/11 02:04:50;;;;;;;48.43;26.57;;;;;;;14.47;100.00;101457.78;4985457;28;20038;-74
2022/09/11 02:07:41;;;;;;;50.60;26.27;;;;;;;14.48;100.00;101462.00;4969495;28;20037;-74
2022/09/11 02:10:22;;;;;;;59.28;28.30;;;;;;;14.47;100.00;101458.59;4979900;28;20438;-74
2022/09/11 02:12:57;;;;;;;57.08;27.80;;;;;;;14.43;100.00;101464.28;4980644;28;20121;-74
2022/09/11 02:15:24;;;;;;;;;;;;;;;14.38;100.00;101460.38;4968708;28;20041;-74
2022/09/11 02:18:00;;;;;;;53.72;27.52;;;;;;;14.37;100.00;101461.38;4982861;28;19979;-74
2022/09/11 02:20:28;;;;;;;66.22;30.33;;;;;;;14.42;100.00;101466.09;4984497;28;20041;-75
2022/09/11 02:22:54;;;;;;;60.95;27.92;;;;;;;14.43;100.00;101474.72;4987040;28;20038;-74
2022/09/11 02:25:22;;;;;;;54.00;26.08;;;;;;;14.45;100.00;101471.00;4986062;28;20110;-74
2022/09/11 02:27:53;;;;;;;63.17;30.90;;;;;;;14.45;100.00;101465.78;4986173;28;20088;-74
2022/09/11 02:30:19;;;;;;;55.60;28.77;;;;;;;14.44;100.00;101477.19;4968518;28;20042;-74
2022/09/11 02:32:46;;;;;;;62.17;32.47;;;;;;;14.48;100.00;101482.88;4969408;28;20523;-74
2022/09/11 02:35:12;;;;;;;57.75;29.35;;;;;;;14.50;100.00;101480.91;4964621;28;20062;-74
2022/09/11 02:37:56;;;;;;;62.42;31.42;;;;;;;14.49;100.00;101487.13;4971717;28;20018;-74
2022/09/11 02:40:30;;;;;;;61.70;29.60;;;;;;;14.50;100.00;101486.13;4984014;28;20522;-74
2022/09/11 02:43:12;;;;;;;;;;;;;;;14.49;100.00;101485.34;4985824;28;20039;-74
2022/09/11 02:46:15;;;;;;;67.80;30.73;;;;;;;14.51;100.00;101485.19;4979600;28;19921;-74
2022/09/11 02:48:44;;;;;;;60.22;32.75;;;;;;;14.51;100.00;101487.78;4988641;28;20085;-74
2022/09/11 02:51:31;;;;;;;61.45;30.23;;;;;;;14.53;100.00;101491.03;4969843;28;20174;-74
2022/09/11 02:54:04;;;;;;;57.45;30.75;;;;;;;14.54;100.00;101490.03;4985804;28;20030;-74
2022/09/11 02:56:51;;;;;;;66.80;31.63;;;;;;;14.55;100.00;101494.28;4985292;28;20520;-74
2022/09/11 02:59:25;;;;;;;62.40;30.48;;;;;;;14.57;100.00;101487.94;4985526;28;20117;-74
2022/09/11 03:01:58;;;;;;;63.90;31.27;;;;;;;14.63;100.00;101494.31;4985077;28;20035;-74
2022/09/11 03:04:24;;;;;;;68.90;31.13;;;;;;;14.56;100.00;101494.13;4971050;28;20030;-75
2022/09/11 03:06:52;;;;;;;69.00;31.67;;;;;;;14.59;100.00;101488.59;4983773;28;20019;-74
2022/09/11 03:09:18;;;;;;;72.43;30.15;;;;;;;14.60;100.00;101492.84;4985917;28;20038;-74
2022/09/11 03:11:45;;;;;;;70.72;31.50;;;;;;;14.58;100.00;101492.22;4986497;28;20034;-74
2022/09/11 03:14:11;;;;;;;73.88;33.17;;;;;;;14.57;100.00;101498.38;4987218;28;20030;-74
2022/09/11 03:16:39;;;;;;;56.28;28.98;;;;;;;14.57;100.00;101498.38;4972979;28;20680;-75
2022/09/11 03:19:07;;;;;;;67.93;33.40;;;;;;;14.58;100.00;101500.03;4988986;28;20026;-74
2022/09/11 03:21:33;;;;;;;63.90;29.77;;;;;;;14.59;100.00;101500.84;4987555;28;20053;-74
2022/09/11 03:23:59;;;;;;;73.20;33.67;;;;;;;14.60;100.00;101502.47;4988769;28;20031;-74
2022/09/11 03:26:26;;;;;;;69.70;32.28;;;;;;;14.59;100.00;101506.88;4989247;28;20326;-74
2022/09/11 03:28:53;;;;;;;70.05;31.98;;;;;;;14.64;100.00;101508.19;4989058;28;20038;-74
2022/09/11 03:31:19;;;;;;;63.97;32.15;;;;;;;14.62;100.00;101503.13;4986616;28;20487;-74
2022/09/11 03:33:46;;;;;;;57.30;29.13;;;;;;;14.60;100.00;101499.88;4986842;28;20121;-74
2022/09/11 03:36:12;;;;;;;64.68;30.90;;;;;;;14.60;100.00;101505.91;4985590;28;20660;-74
2022/09/11 03:38:38;;;;;;;60.47;30.40;;;;;;;14.61;100.00;101506.72;4970346;28;20046;-74
2022/09/11 03:41:04;;;;;;;73.68;32.50;;;;;;;14.60;100.00;101507.69;4983586;28;20030;-74
2022/09/11 03:43:31;;;;;;;68.72;33.42;;;;;;;14.65;100.00;101515.03;4978523;28;20026;-74
2022/09/11 03:45:59;;;;;;;65.72;32.92;;;;;;;14.59;100.00;101508.66;4986837;28;20058;-74
2022/09/11 03:48:25;;;;;;;66.05;32.05;;;;;;;14.59;100.00;101512.09;4986832;28;20033;-74
2022/09/11 03:50:50;;;;;;;69.20;32.22;;;;;;;14.55;100.00;101513.38;4972709;28;20038;-74
2022/09/11 03:53:16;;;;;;;67.28;31.48;;;;;;;14.55;100.00;101509.94;4985661;28;20403;-75
2022/09/11 03:55:44;;;;;;;77.78;33.45;;;;;;;14.57;100.00;101513.25;4988316;28;20034;-74
2022/09/11 03:58:10;;;;;;;77.38;36.17;;;;;;;14.55;100.00;101517.78;4973298;28;20592;-74
2022/09/11 04:00:44;;;;;;;71.63;34.42;;;;;;;14.54;100.00;101519.59;4988013;28;20034;-74
2022/09/11 04:03:12;;;;;;;80.97;35.08;;;;;;;14.55;100.00;101518.59;4988652;28;20451;-75
2022/09/11 04:05:42;;;;;;;78.55;32.70;;;;;;;14.56;100.00;101511.56;4988598;28;20026;-74
2022/09/11 04:08:12;;;;;;;74.85;33.70;;;;;;;14.55;100.00;101509.94;4985473;28;20488;-74
2022/09/11 04:10:39;;;;;;;73.30;34.17;;;;;;;14.57;100.00;101505.41;4986380;28;20487;-75
2022/09/11 04:13:07;;;;;;;59.83;29.08;;;;;;;14.52;100.00;101505.88;4988803;28;20034;-74
2022/09/11 04:15:32;;;;;;;60.78;29.23;;;;;;;14.49;100.00;101506.22;4987715;28;20107;-74
2022/09/11 04:17:58;;;;;;;69.25;32.72;;;;;;;14.56;100.00;101511.56;4988534;28;20419;-74
2022/09/11 04:20:24;;;;;;;70.70;34.20;;;;;;;14.55;100.00;101505.53;4986431;28;20049;-74
2022/09/11 04:22:50;;;;;;;68.07;32.35;;;;;;;14.54;100.00;101510.91;4971788;28;20558;-74
2022/09/11 04:25:15;;;;;;;72.43;34.20;;;;;;;14.53;100.00;101506.69;4986699;28;20096;-75
2022/09/11 04:27:41;;;;;;;68.97;32.53;;;;;;;14.48;100.00;101506.38;4989408;28;20033;-75
2022/09/11 04:30:11;;;;;;;58.72;28.98;;;;;;;14.45;100.00;101509.28;4987679;28;20130;-74
2022/09/11 04:32:36;;;;;;;64.68;30.98;;;;;;;14.46;100.00;101510.94;4984940;28;20105;-74
2022/09/11 04:35:02;;;;;;;72.07;33.83;;;;;;;14.47;100.00;101518.59;4981846;28;20030;-74
2022/09/11 04:37:35;;;;;;;66.47;31.52;;;;;;;14.43;100.00;101521.69;4986685;28;20019;-74
2022/09/11 04:40:01;;;;;;;69.80;34.08;;;;;;;14.47;100.00;101521.22;4970161;28;20078;-74
2022/09/11 04:42:29;;;;;;;70.63;33.28;;;;;;;14.47;100.00;101520.41;4987152;28;20049;-75
2022/09/11 04:44:55;;;;;;;61.95;30.23;;;;;;;14.42;100.00;101526.09;4983848;28;20632;-74
2022/09/11 04:47:20;;;;;;;54.92;28.42;;;;;;;14.38;100.00;101524.81;4990917;28;20026;-74
2022/09/11 04:49:47;;;;;;;69.45;32.72;;;;;;;14.40;100.00;101528.06;4984220;28;20081;-75
2022/09/11 04:52:14;;;;;;;68.13;32.53;;;;;;;14.40;100.00;101522.84;4974248;28;20384;-74
2022/09/11 04:54:40;;;;;;;66.47;31.23;;;;;;;14.41;100.00;101529.72;4969962;28;20534;-74
2022/09/11 04:57:08;;;;;;;55.25;28.52;;;;;;;14.40;100.00;101528.06;4973111;28;20031;-74
2022/09/11 04:59:34;;;;;;;61.15;29.27;;;;;;;14.41;100.00;101532.31;4987895;28;20091;-74
2022/09/11 05:02:05;;;;;;;70.20;32.85;;;;;;;14.41;100.00;101527.91;4986076;28;20129;-74
2022/09/11 05:04:34;;;;;;;66.32;31.80;;;;;;;14.40;100.00;101541.09;4964492;28;20030;-74
2022/09/11 05:07:01;;;;;;;64.00;31.13;;;;;;;14.37;100.00;101536.19;4982845;28;20142;-74
2022/09/11 05:09:27;;;;;;;58.20;28.92;;;;;;;14.38;100.00;101533.44;4988461;28;20030;-74
2022/09/11 05:11:55;;;;;;;68.30;31.05;;;;;;;14.37;100.00;101544.88;4969297;28;20038;-74
2022/09/11 05:14:22;;;;;;;70.88;32.60;;;;;;;14.41;100.00;101548.78;4969619;28;20030;-74
2022/09/11 05:16:51;;;;;;;61.80;30.30;;;;;;;14.39;100.00;101560.34;4968316;28;20396;-74
2022/09/11 05:19:18;;;;;;;61.10;30.08;;;;;;;14.39;100.00;101560.34;4980455;28;20041;-74
2022/09/11 05:21:44;;;;;;;62.67;29.45;;;;;;;14.37;100.00;101560.53;4986188;28;20038;-74
2022/09/11 05:24:10;;;;;;;77.55;32.97;;;;;;;14.43;100.00;101571.25;4986173;28;20037;-74
2022/09/11 05:26:37;;;;;;;74.78;32.40;;;;;;;14.37;100.00;101570.13;4967175;28;20031;-74
2022/09/11 05:29:07;;;;;;;64.75;30.45;;;;;;;14.41;100.00;101580.09;4985558;28;20095;-74
2022/09/11 05:31:36;;;;;;;60.70;29.05;;;;;;;14.39;100.00;101576.00;4986390;28;20065;-74
2022/09/11 05:34:03;;;;;;;64.68;31.90;;;;;;;14.40;100.00;101581.03;4984870;28;20026;-74
2022/09/11 05:36:32;;;;;;;69.57;30.98;;;;;;;14.41;100.00;101589.72;4986199;28;20033;-74
2022/09/11 05:38:58;;;;;;;68.22;30.73;;;;;;;14.42;100.00;101583.50;4985931;28;20568;-74
2022/09/11 05:41:24;;;;;;;71.10;32.05;;;;;;;14.41;100.00;101590.53;4990930;28;20066;-74
2022/09/11 05:43:50;;;;;;;62.00;29.73;;;;;;;14.41;100.00;101593.13;4969020;28;20049;-74
2022/09/11 05:46:18;;;;;;;65.13;30.17;;;;;;;14.43;100.00;101594.75;4987833;28;20037;-74
2022/09/11 05:48:47;;;;;;;63.25;28.67;;;;;;;14.39;100.00;101591.63;4967752;28;20049;-74
2022/09/11 05:51:17;;;;;;;68.55;29.73;;;;;;;14.40;100.00;101604.53;4986618;28;20573;-74
2022/09/11 05:53:44;;;;;;;67.25;31.20;;;;;;;14.37;100.00;101601.44;4983881;28;20563;-75
2022/09/11 05:56:16;;;;;;;68.85;30.42;;;;;;;14.36;100.00;101603.22;4986899;28;20474;-74
2022/09/11 05:58:46;;;;;;;60.90;28.08;;;;;;;14.37;100.00;101602.25;4967980;28;20117;-74
2022/09/11 06:01:19;;;;;;;62.55;28.08;;;;;;;14.36;100.00;101600.63;4968964;28;20041;-74
2022/09/11 06:03:49;;;;;;;63.65;29.35;;;;;;;14.38;100.00;101597.84;4984507;28;20039;-74
2022/09/11 06:06:19;;;;;;;60.58;27.48;;;;;;;14.38;100.00;101603.88;4985309;28;20043;-74
2022/09/11 06:08:46;;;;;;;57.10;26.27;;;;;;;14.39;100.00;101608.13;4986114;28;20033;-74
2022/09/11 06:11:13;;;;;;;70.93;31.08;;;;;;;14.40;100.00;101612.34;4984323;28;20494;-75
2022/09/11 06:13:41;;;;;;;53.75;26.92;;;;;;;14.40;100.00;101616.75;4986295;28;20077;-74
2022/09/11 06:16:15;;;;;;;69.40;29.38;;;;;;;14.41;100.00;101619.22;4986687;28;20038;-74
2022/09/11 06:18:41;;;;;;;59.35;29.30;;;;;;;14.43;100.00;101616.47;4981206;28;20030;-74
2022/09/11 06:21:12;;;;;;;58.38;28.80;;;;;;;14.46;100.00;101623.13;4986502;28;20034;-74
2022/09/11 06:23:49;;;;;;;61.08;29.45;;;;;;;14.46;100.00;101630.97;4986245;28;20030;-74
2022/09/11 06:26:17;;;;;;;57.47;26.90;;;;;;;14.48;100.00;101632.41;4985448;28;20050;-75
2022/09/11 06:28:44;;;;;;;55.63;27.17;;;;;;;14.54;100.00;101633.56;4986157;28;20599;-74
2022/09/11 06:31:15;;;;;;;60.72;28.58;;;;;;;14.53;100.00;101635.38;4984166;28;20092;-74
2022/09/11 06:33:41;;;;;;;59.78;27.70;;;;;;;14.50;100.00;101637.47;4968799;28;20176;-74
2022/09/11 06:36:10;;;;;;;55.67;28.35;;;;;;;14.51;100.00;101632.09;4985850;28;20106;-75
2022/09/11 06:38:39;;;;;;;61.28;28.88;;;;;;;14.50;100.00;101629.66;4979423;28;20026;-75
2022/09/11 06:41:10;;;;;;;50.00;24.52;;;;;;;14.51;100.00;101628.69;4969974;28;20030;-75
2022/09/11 06:43:36;;;;;;;57.13;28.80;;;;;;;14.56;100.00;101629.84;4963295;28;20037;-74
2022/09/11 06:46:11;;;;;;;51.58;26.00;;;;;;;14.54;100.00;101637.00;4987676;28;20042;-74
2022/09/11 06:48:42;;;;;;;57.22;28.65;;;;;;;14.54;100.00;101639.63;4990118;28;20479;-74
2022/09/11 06:51:11;;;;;;;54.05;26.52;;;;;;;14.57;100.00;101641.94;4970502;28;20058;-74
2022/09/11 06:53:37;;;;;;;52.13;25.65;;;;;;;14.57;100.00;101636.72;4969610;28;20362;-74
2022/09/11 06:56:10;;;;;;;54.85;27.15;;;;;;;14.54;100.00;101647.47;4989157;28;20034;-74
2022/09/11 06:58:35;;;;;;;49.90;26.42;;;;;;;14.62;100.00;101646.69;4985638;28;20041;-74
2022/09/11 07:01:08;;;;;;;52.08;25.27;;;;;;;14.63;100.00;101650.09;4987896;28;20038;-75
2022/09/11 07:03:34;;;;;;;51.13;25.47;;;;;;;14.64;100.00;101649.13;4966823;28;20023;-74
2022/09/11 07:06:05;;;;;;;46.30;24.48;;;;;;;14.72;100.00;101649.13;4973634;28;20589;-75
2022/09/11 07:08:30;;;;;;;46.08;24.38;;;;;;;14.71;100.00;101655.31;4989505;28;20031;-75
2022/09/11 07:11:02;;;;;;;44.42;24.02;;;;;;;14.68;100.00;101658.25;4968592;28;20035;-75
2022/09/11 07:13:31;;;;;;;45.40;23.83;;;;;;;14.73;100.00;101655.97;4989421;28;20101;-74
2022/09/11 07:16:02;;;;;;;44.28;23.30;;;;;;;14.72;100.00;101656.97;4989266;28;20048;-75
2022/09/11 07:18:37;;;;;;;39.78;21.15;;;;;;;14.73;100.00;101664.63;5004251;28;20022;-74
2022/09/11 07:21:11;;;;;;;42.58;23.83;;;;;;;14.66;100.00;101658.41;4986324;28;20492;-75
2022/09/11 07:23:39;;;;;;;42.10;22.88;;;;;;;14.68;100.00;101658.25;4968437;28;20046;-75
2022/09/11 07:26:10;;;;;;;42.28;22.52;;;;;;;14.61;100.00;101658.09;4966766;28;20402;-75
2022/09/11 07:28:39;;;;;;;38.53;21.88;;;;;;;14.66;100.00;101655.00;4983180;28;20034;-75
2022/09/11 07:31:09;;;;;;;38.17;21.35;;;;;;;14.66;100.00;101658.41;4988780;28;20031;-75
2022/09/11 07:33:37;;;;;;;42.20;23.20;;;;;;;14.66;100.00;101657.63;4980979;28;20029;-75
2022/09/11 07:36:10;;;;;;;36.42;21.70;;;;;;;14.70;100.00;101662.34;4972671;28;20038;-75
2022/09/11 07:38:40;;;;;;;38.53;21.77;;;;;;;14.65;100.00;101661.19;4983366;28;20081;-76
2022/09/11 07:41:07;;;;;;;40.13;21.80;;;;;;;14.75;100.00;101654.84;4987647;28;20030;-74
2022/09/11 07:43:35;;;;;;;34.08;19.08;;;;;;;14.73;100.00;101663.78;4969457;28;20045;-74
2022/09/11 07:46:01;;;;;;;43.42;22.98;;;;;;;14.82;100.00;101656.78;4986315;28;20133;-75
2022/09/11 07:48:28;;;;;;;37.50;21.92;;;;;;;14.81;100.00;101665.63;4988502;28;20117;-75
2022/09/11 07:50:56;;;;;;;37.80;21.67;;;;;;;14.85;100.00;101672.16;4989258;28;20062;-75
2022/09/11 07:53:23;;;;;;;36.97;21.25;;;;;;;14.89;100.00;101674.25;4990410;28;20120;-76
2022/09/11 07:55:49;;;;;;;40.75;22.27;;;;;;;14.92;100.00;101675.75;4969510;28;20116;-76
2022/09/11 07:58:15;;;;;;;43.25;23.92;;;;;;;14.88;100.00;101682.25;4988283;28;20030;-75
2022/09/11 08:00:42;;;;;;;37.72;21.92;;;;;;;14.92;100.00;101678.34;4988297;28;20030;-75
2022/09/11 08:03:16;;;;;;;38.40;22.13;;;;;;;14.88;100.00;101682.25;4988645;28;20057;-75
2022/09/11 08:05:41;;;;;;;31.13;19.75;;;;;;;14.86;100.00;101678.97;4988288;28;20515;-75
2022/09/11 08:08:09;;;;;;;35.53;20.90;;;;;;;14.89;100.00;101686.50;4988410;28;20034;-75
2022/09/11 08:10:39;;;;;;;40.92;21.40;;;;;;;14.89;100.00;101687.31;4989242;28;20615;-76
2022/09/11 08:13:05;;;;;;;42.35;23.17;;;;;;;14.89;100.00;101689.09;4986681;28;20402;-75
2022/09/11 08:15:31;;;;;;;40.22;22.48;;;;;;;14.90;100.00;101691.56;4971484;28;20096;-75
2022/09/11 08:17:58;;;;;;;35.88;21.48;;;;;;;14.93;100.00;101687.78;4987663;28;20034;-75
2022/09/11 08:20:24;;;;;;;39.45;21.40;;;;;;;14.97;100.00;101683.88;4984395;28;20034;-75
2022/09/11 08:22:49;;;;;;;38.53;21.55;;;;;;;14.99;100.00;101682.75;4971449;28;20046;-76
2022/09/11 08:25:17;;;;;;;35.50;19.60;;;;;;;15.04;100.00;101697.91;4971710;28;20502;-75
2022/09/11 08:27:43;;;;;;;34.08;20.60;;;;;;;15.09;100.00;101697.44;4988542;28;20065;-75
2022/09/11 08:30:10;;;;;;;43.67;21.92;;;;;;;15.12;100.00;101700.50;4987669;28;20052;-75
2022/09/11 08:32:36;;;;;;;35.25;19.70;;;;;;;15.16;100.00;101701.00;4987231;28;20077;-74
2022/09/11 08:35:01;;;;;;;40.30;22.98;;;;;;;15.24;100.00;101706.25;4988767;28;20252;-75
2022/09/11 08:37:28;;;;;;;40.15;21.73;;;;;;;15.33;100.00;101699.19;4986433;28;20030;-75
2022/09/11 08:39:53;;;;;;;40.50;21.55;;;;;;;15.40;100.00;101705.41;4976397;28;20034;-75
2022/09/11 08:42:19;;;;;;;41.58;22.70;;;;;;;15.43;100.00;101706.88;4972815;28;20395;-75
2022/09/11 08:44:55;;;;;;;40.47;21.05;;;;;;;15.38;100.00;101708.16;4983678;28;20089;-75
2022/09/11 08:47:30;;;;;;;42.90;22.75;;;;;;;15.52;100.00;101704.09;4970191;28;20031;-75
2022/09/11 08:50:04;;;;;;;43.10;22.63;;;;;;;15.52;100.00;101711.94;4988276;28;20380;-75
2022/09/11 08:52:33;;;;;;;42.53;23.15;;;;;;;15.62;100.00;101710.94;4969864;28;20034;-75
2022/09/11 08:54:59;;;;;;;38.70;21.10;;;;;;;15.68;100.00;101708.44;4971776;28;20042;-75
2022/09/11 08:57:50;;;;;;;41.05;22.35;;;;;;;15.72;100.00;101708.94;4987021;28;20026;-75
2022/09/11 09:00:18;;;;;;;42.67;21.42;;;;;;;15.69;100.00;101714.47;4987529;28;20092;-74
2022/09/11 09:03:03;;;;;;;38.90;21.80;;;;;;;15.72;100.00;101714.16;4987890;28;20038;-76
2022/09/11 09:05:50;;;;;;;40.30;22.17;;;;;;;15.76;100.00;101718.09;4970718;28;20034;-75
2022/09/11 09:08:56;;;;;;;48.70;23.83;;;;;;;15.83;100.00;101715.63;4984841;28;20064;-75
2022/09/11 09:11:49;;;;;;;38.60;20.48;;;;;;;15.78;100.00;101721.34;4972668;28;20108;-75
2022/09/11 09:14:36;;;;;;;42.50;23.38;;;;;;;15.87;100.00;101722.16;4974033;28;20518;-76
2022/09/11 09:17:11;;;;;;;46.15;23.90;;;;;;;15.86;100.00;101720.50;4984084;28;20026;-75
2022/09/11 09:19:51;;;;;;;49.75;25.73;;;;;;;15.86;100.00;101725.75;4971388;28;20109;-75
2022/09/11 09:22:38;;;;;;;41.45;22.17;;;;;;;15.95;100.00;101724.72;4986670;28;20034;-75
2022/09/11 09:25:10;;;;;;;48.28;22.92;;;;;;;16.06;100.00;101716.53;4980353;28;20034;-75
2022/09/11 09:27:46;;;;;;;51.47;25.27;;;;;;;16.24;100.00;101718.91;4986073;28;20031;-75
2022/09/11 09:30:20;;;;;;;46.17;23.05;;;;;;;16.20;100.00;101722.84;5000121;28;20129;-75
2022/09/11 09:32:54;;;;;;;50.55;25.23;;;;;;;16.12;100.00;101722.88;4968998;28;20034;-75
2022/09/11 09:35:38;;;;;;;46.55;24.23;;;;;;;16.10;100.00;101723.03;4984313;28;20035;-75
2022/09/11 09:38:15;;;;;;;47.67;25.70;;;;;;;16.26;100.00;101727.41;4997735;28;20030;-75
2022/09/11 09:41:00;;;;;;;50.00;24.33;;;;;;;16.26;100.00;101732.63;4987961;28;20030;-75
2022/09/11 09:43:50;;;;;;;49.08;24.20;;;;;;;16.35;100.00;101736.03;4988093;28;20046;-75
2022/09/11 09:46:31;;;;;;;46.70;23.90;;;;;;;16.41;100.00;101732.72;4983851;28;20062;-75
2022/09/11 09:48:57;;;;;;;49.08;24.17;;;;;;;16.60;100.00;101728.03;4987560;28;20483;-75
2022/09/11 09:51:22;;;;;;;50.58;25.48;;;;;;;16.67;100.00;101721.94;4986347;28;20058;-75
2022/09/11 09:53:54;;;;;;;43.25;23.65;;;;;;;16.67;100.00;101723.72;4966495;28;20092;-75
2022/09/11 09:56:22;;;;;;;49.22;27.23;;;;;;;16.64;100.00;101732.75;4992964;28;20235;-75
2022/09/11 09:58:59;;;;;;;49.35;25.38;;;;;;;16.59;100.00;101727.22;4983110;28;20018;-75
2022/09/11 10:01:52;;;;;;;45.38;22.75;;;;;;;16.67;100.00;101734.19;4986858;28;20406;-75
2022/09/11 10:04:25;;;;;;;42.15;21.75;;;;;;;16.81;100.00;101732.66;4984838;28;20054;-75
2022/09/11 10:07:03;;;;;;;48.47;24.42;;;;;;;16.89;100.00;101730.00;4986706;28;20073;-75
2022/09/11 10:09:29;;;;;;;45.50;23.80;;;;;;;16.79;100.00;101730.19;4987483;28;20051;-75
2022/09/11 10:12:01;;;;;;;44.90;23.38;;;;;;;16.83;100.00;101735.94;4985135;28;20391;-75
2022/09/11 10:14:31;;;;;;;42.53;22.30;;;;;;;16.84;100.00;101734.94;4986948;28;20125;-75
2022/09/11 10:16:58;;;;;;;42.15;23.40;;;;;;;16.85;98.01;101732.13;4986777;28;20026;-75
2022/09/11 10:19:41;;;;;;;41.63;21.25;;;;;;;16.86;98.56;101735.59;4987115;28;20064;-76
2022/09/11 10:22:25;;;;;;;42.80;23.00;;;;;;;16.85;99.68;101736.56;4987977;28;20043;-76
2022/09/11 10:24:59;;;;;;;39.15;20.50;;;;;;;16.87;100.00;101732.78;4984450;28;20038;-75
2022/09/11 10:27:26;;;;;;;36.35;20.33;;;;;;;16.86;100.00;101733.78;4988995;28;20077;-75
2022/09/11 10:29:53;;;;;;;36.60;19.27;;;;;;;16.91;100.00;101728.00;4988836;28;20117;-75
2022/09/11 10:32:21;;;;;;;42.10;22.65;;;;;;;16.89;100.00;101730.78;4987228;28;20030;-75
2022/09/11 10:34:47;;;;;;;43.22;22.27;;;;;;;16.83;99.97;101735.94;4989706;28;20096;-76
2022/09/11 10:37:12;;;;;;;43.08;24.52;;;;;;;16.96;100.00;101740.59;4989516;28;20033;-75
2022/09/11 10:39:40;;;;;;;47.35;24.52;;;;;;;17.01;100.00;101733.84;4989807;28;20145;-75
2022/09/11 10:42:21;;;;;;;43.15;24.17;;;;;;;17.14;98.98;101738.50;4986137;28;20454;-76
2022/09/11 10:44:48;;;;;;;39.00;22.13;;;;;;;17.26;98.22;101731.81;4986225;28;20045;-75
2022/09/11 10:47:19;;;;;;;40.15;21.95;;;;;;;17.37;96.96;101730.59;4990135;28;20121;-76
2022/09/11 10:49:46;;;;;;;39.22;21.33;;;;;;;17.46;96.87;101736.53;4990146;28;20101;-76
2022/09/11 10:52:11;;;;;;;31.95;18.10;;;;;;;17.56;95.89;101731.88;4989504;28;20479;-75
2022/09/11 10:54:43;;;;;;;40.03;20.80;;;;;;;17.63;95.26;101732.78;4985522;28;20110;-75
2022/09/11 10:57:12;;;;;;;43.50;22.40;;;;;;;17.63;93.08;101731.94;4987624;28;20042;-75
2022/09/11 10:59:54;;;;;;;34.55;18.88;;;;;;;17.64;93.45;101734.41;4989876;28;20068;-76
2022/09/11 11:02:32;;;;;;;32.70;18.90;;;;;;;17.69;94.05;101737.31;4972202;28;20038;-74
2022/09/11 11:05:04;;;;;;;29.55;17.65;;;;;;;17.79;93.90;101729.16;4972922;28;20046;-76
2022/09/11 11:07:39;;;;;;;37.00;21.30;;;;;;;17.89;93.46;101729.75;4988293;28;20049;-75
2022/09/11 11:10:22;;;;;;;39.75;21.27;;;;;;;17.94;92.12;101733.63;4967641;28;20033;-75
2022/09/11 11:13:00;;;;;;;40.33;21.02;;;;;;;17.94;92.16;101733.63;4984034;28;20034;-75
2022/09/11 11:15:39;;;;;;;41.10;21.25;;;;;;;18.09;92.91;101727.34;4985783;28;20039;-75
2022/09/11 11:18:16;;;;;;;36.55;21.70;;;;;;;18.32;91.40;101728.22;4973349;28;20038;-76
2022/09/11 11:21:05;;;;;;;29.55;17.88;;;;;;;18.70;88.96;101726.19;4991018;28;20034;-76